createdAt,value
2017-03-10T00:07:24.797Z,0
2017-03-10T00:17:36.740Z,0
2017-03-10T00:27:25.623Z,0
2017-03-10T00:37:34.444Z,0
2017-03-10T00:47:24.893Z,0
2017-03-10T00:57:24.916Z,0
2017-03-10T01:07:24.924Z,0
2017-03-10T01:17:25.005Z,0
2017-03-10T01:27:24.890Z,0
2017-03-10T01:37:24.975Z,0
2017-03-10T01:47:24.963Z,0
2017-03-10T01:57:24.953Z,0
2017-03-10T02:07:24.912Z,0
2017-03-10T02:17:24.882Z,0
2017-03-10T02:27:24.965Z,0
2017-03-10T02:37:24.916Z,0
2017-03-10T02:47:24.993Z,0
2017-03-10T02:57:24.947Z,0
2017-03-10T03:07:25.025Z,0
2017-03-10T03:17:25.038Z,0
2017-03-10T03:27:25.899Z,0
2017-03-10T03:37:24.942Z,0
2017-03-10T03:47:25.038Z,0
2017-03-10T03:57:25.037Z,0
2017-03-10T04:07:24.997Z,0
2017-03-10T04:17:25.048Z,0
2017-03-10T04:27:24.969Z,0
2017-03-10T04:37:25.059Z,0
2017-03-10T04:47:25.087Z,0
2017-03-10T04:57:25.059Z,0
2017-03-10T05:07:25.030Z,0
2017-03-10T05:17:25.107Z,0
2017-03-10T05:27:25.055Z,0
2017-03-10T05:37:25.122Z,0
2017-03-10T05:47:25.092Z,0
2017-03-10T05:57:25.141Z,5
2017-03-10T06:07:25.108Z,10
2017-03-10T06:17:25.120Z,20
2017-03-10T06:27:25.146Z,25
2017-03-10T06:37:25.090Z,25
2017-03-10T06:47:25.144Z,25
2017-03-10T06:57:25.342Z,35
2017-03-10T07:07:25.228Z,35
2017-03-10T07:17:25.116Z,55
2017-03-10T07:27:25.172Z,70
2017-03-10T07:37:25.209Z,105
2017-03-10T07:47:25.228Z,70
2017-03-10T07:57:25.170Z,160
2017-03-10T08:07:25.258Z,95
2017-03-10T08:17:25.183Z,240
2017-03-10T08:27:25.193Z,260
2017-03-10T08:37:25.238Z,235
2017-03-10T08:47:25.285Z,280
2017-03-10T08:57:25.274Z,245
2017-03-10T09:07:25.222Z,215
2017-03-10T09:17:25.335Z,280
2017-03-10T09:27:25.259Z,205
2017-03-10T09:37:26.407Z,285
2017-03-10T09:47:25.303Z,145
2017-03-10T09:57:25.287Z,215
2017-03-10T10:07:25.331Z,230
2017-03-10T10:17:25.275Z,240
2017-03-10T10:27:25.768Z,245
2017-03-10T10:37:25.353Z,220
2017-03-10T10:47:25.423Z,180
2017-03-10T10:57:25.383Z,245
2017-03-10T11:07:25.339Z,260
2017-03-10T11:17:25.336Z,195
2017-03-10T11:27:25.702Z,220
2017-03-10T11:37:25.327Z,145
2017-03-10T11:47:25.429Z,195
2017-03-10T11:57:25.406Z,175
2017-03-10T12:07:25.519Z,255
2017-03-10T12:17:25.397Z,225
2017-03-10T12:27:25.507Z,265
2017-03-10T12:37:25.510Z,270
2017-03-10T12:47:25.551Z,255
2017-03-10T12:57:26.487Z,245
2017-03-10T13:07:25.425Z,225
2017-03-10T13:17:25.523Z,170
2017-03-10T13:27:25.610Z,180
2017-03-10T13:37:25.522Z,135
2017-03-10T13:47:25.467Z,155
2017-03-10T13:57:25.476Z,175
2017-03-10T14:07:25.617Z,195
2017-03-10T14:17:25.571Z,155
2017-03-10T14:27:25.557Z,155
2017-03-10T14:37:25.593Z,155
2017-03-10T14:47:25.556Z,155
2017-03-10T14:57:29.231Z,155
2017-03-10T15:17:25.506Z,115
2017-03-10T15:27:25.538Z,130
2017-03-10T15:37:25.530Z,105
2017-03-10T15:47:25.596Z,105
2017-03-10T15:57:25.584Z,115
2017-03-10T16:07:25.628Z,95
2017-03-10T16:17:25.641Z,70
2017-03-10T16:27:25.609Z,55
2017-03-10T16:37:25.623Z,50
2017-03-10T16:47:25.665Z,40
2017-03-10T16:57:25.664Z,35
2017-03-10T17:07:25.770Z,20
2017-03-10T17:17:25.657Z,10
2017-03-10T17:27:25.718Z,5
2017-03-10T17:37:25.652Z,0
2017-03-10T17:47:25.718Z,0
2017-03-10T17:57:25.765Z,0
2017-03-10T18:07:25.820Z,0
2017-03-10T18:17:25.740Z,0
2017-03-10T18:27:25.807Z,0
2017-03-10T18:37:25.869Z,0
2017-03-10T18:47:25.859Z,0
2017-03-10T18:57:25.839Z,0
2017-03-10T19:07:25.804Z,0
2017-03-10T19:17:25.847Z,0
2017-03-10T19:27:25.825Z,0
2017-03-10T19:37:25.946Z,0
2017-03-10T19:47:25.988Z,0
2017-03-10T19:57:26.162Z,0
2017-03-10T20:07:25.829Z,0
2017-03-10T20:17:25.887Z,0
2017-03-10T20:27:26.020Z,0
2017-03-10T20:37:25.908Z,0
2017-03-10T20:47:25.810Z,0
2017-03-10T20:57:26.191Z,0
2017-03-10T21:07:25.903Z,0
2017-03-10T21:17:25.983Z,0
2017-03-10T21:27:26.037Z,0
2017-03-10T21:37:26.035Z,0
2017-03-10T21:47:25.916Z,0
2017-03-10T21:57:26.063Z,0
2017-03-10T22:07:26.056Z,0
2017-03-10T22:17:26.104Z,0
2017-03-10T22:27:26.015Z,0
2017-03-10T22:37:26.029Z,0
2017-03-10T22:47:25.967Z,0
2017-03-10T22:57:26.067Z,0
2017-03-10T23:07:25.969Z,0
2017-03-10T23:17:26.059Z,0
2017-03-10T23:27:26.039Z,0
2017-03-10T23:37:26.198Z,0
2017-03-10T23:47:26.033Z,0
2017-03-10T23:57:26.090Z,0
